createdAt,value
2018-02-04T05:00:31.520Z,0.39
2018-02-04T05:01:19.808Z,0.43
2018-02-04T05:01:45.297Z,0.47
2018-02-04T05:02:10.826Z,0.49
2018-02-04T05:02:36.284Z,0.5
2018-02-04T05:03:01.782Z,0.5
2018-02-04T05:03:27.289Z,0.49
2018-02-04T05:04:20.733Z,0.47
2018-02-04T05:04:46.223Z,0.5
2018-02-04T05:05:11.731Z,0.46
2018-02-04T05:05:37.201Z,0.43
2018-02-04T05:06:02.689Z,0.46
2018-02-04T05:06:28.212Z,0.44
2018-02-04T05:06:53.724Z,0.46
2018-02-04T05:07:19.217Z,0.5
2018-02-04T05:07:44.702Z,0.49
2018-02-04T05:08:10.156Z,0.5
2018-02-04T05:08:35.655Z,0.43
2018-02-04T05:09:01.149Z,0.55
2018-02-04T05:09:26.616Z,0.46
2018-02-04T05:09:52.088Z,0.49
2018-02-04T05:10:17.598Z,0.52
2018-02-04T05:10:43.075Z,0.49
2018-02-04T05:11:08.590Z,0.49
2018-02-04T05:11:34.105Z,0.52
2018-02-04T05:11:59.600Z,0.55
2018-02-04T05:12:25.081Z,0.56
2018-02-04T05:12:50.570Z,0.56
2018-02-04T05:13:16.070Z,0.58
2018-02-04T05:13:41.565Z,0.5
2018-02-04T05:14:40.084Z,0.56
2018-02-04T05:15:05.562Z,0.55
2018-02-04T05:15:31.081Z,0.55
2018-02-04T05:15:56.576Z,0.6
2018-02-04T05:16:22.043Z,0.5
2018-02-04T05:16:47.583Z,0.55
2018-02-04T05:17:13.052Z,0.59
2018-02-04T05:17:38.485Z,0.59
2018-02-04T05:18:03.983Z,0.59
2018-02-04T05:18:29.504Z,0.59
2018-02-04T05:18:54.972Z,0.55
2018-02-04T05:19:43.626Z,0.56
2018-02-04T05:20:09.142Z,0.55
2018-02-04T05:20:34.628Z,0.59
2018-02-04T05:21:00.107Z,0.62
2018-02-04T05:21:25.589Z,0.55
2018-02-04T05:21:51.102Z,0.5
2018-02-04T05:22:16.558Z,0.55
2018-02-04T05:22:42.063Z,0.5
2018-02-04T05:23:07.593Z,0.59
2018-02-04T05:23:33.065Z,0.5
2018-02-04T05:23:58.567Z,0.55
2018-02-04T05:24:24.056Z,0.55
2018-02-04T05:24:49.522Z,0.59
2018-02-04T05:25:15.035Z,0.58
2018-02-04T05:25:40.550Z,0.52
2018-02-04T05:26:06.075Z,0.56
2018-02-04T05:26:54.400Z,0.56
2018-02-04T05:27:19.890Z,0.5
2018-02-04T05:27:45.373Z,0.5
2018-02-04T05:28:10.857Z,0.56
2018-02-04T05:28:36.369Z,0.56
2018-02-04T05:29:01.867Z,0.55
2018-02-04T05:29:27.368Z,0.55
2018-02-04T05:29:52.900Z,0.55
2018-02-04T05:30:18.361Z,0.52
2018-02-04T05:31:27.052Z,0.55
2018-02-04T05:31:52.541Z,0.58
2018-02-04T05:32:18.054Z,0.59
2018-02-04T05:32:43.548Z,0.56
2018-02-04T05:33:09.033Z,0.58
2018-02-04T05:33:34.543Z,0.55
2018-02-04T05:34:00.031Z,0.58
2018-02-04T05:34:25.527Z,0.59
2018-02-04T05:34:51.011Z,0.5
2018-02-04T05:35:16.523Z,0.58
2018-02-04T05:35:41.994Z,0.59
2018-02-04T05:36:07.490Z,0.58
2018-02-04T05:36:33.003Z,0.55
2018-02-04T05:36:58.458Z,0.59
2018-02-04T05:37:23.940Z,0.59
2018-02-04T05:37:49.408Z,0.58
2018-02-04T05:38:14.871Z,0.59
2018-02-04T05:38:40.345Z,0.58
2018-02-04T05:39:05.855Z,0.59
2018-02-04T05:39:31.315Z,0.56
2018-02-04T05:39:56.787Z,0.59
2018-02-04T05:40:22.268Z,0.55
2018-02-04T05:40:47.777Z,0.58
2018-02-04T05:41:13.270Z,0.49
2018-02-04T05:41:38.780Z,0.59
2018-02-04T05:42:04.303Z,0.52
2018-02-04T05:42:29.789Z,0.56
2018-02-04T05:42:55.285Z,0.56
2018-02-04T05:43:20.812Z,0.55
2018-02-04T05:43:46.326Z,0.6
2018-02-04T05:44:11.804Z,0.56
2018-02-04T05:44:37.342Z,0.52
2018-02-04T05:45:02.828Z,0.55
2018-02-04T05:45:28.285Z,0.56
2018-02-04T05:45:53.781Z,0.63
2018-02-04T05:46:19.244Z,0.55
2018-02-04T05:46:44.736Z,0.63
2018-02-04T05:47:10.228Z,0.55
2018-02-04T05:47:35.738Z,0.63
2018-02-04T05:48:01.234Z,0.59
2018-02-04T05:48:26.741Z,0.59
2018-02-04T05:48:52.225Z,0.56
2018-02-04T05:49:17.745Z,0.55
2018-02-04T05:49:43.223Z,0.58
2018-02-04T05:50:08.738Z,0.62
2018-02-04T05:50:34.222Z,0.56
2018-02-04T05:50:59.778Z,0.5
2018-02-04T05:51:25.236Z,0.62
2018-02-04T05:51:50.750Z,0.62
2018-02-04T05:52:16.223Z,0.55
2018-02-04T05:52:41.745Z,0.56
2018-02-04T05:53:07.247Z,0.59
2018-02-04T05:53:32.721Z,0.56
2018-02-04T05:53:58.195Z,0.55
2018-02-04T05:54:23.659Z,0.56
2018-02-04T05:54:49.175Z,0.58
2018-02-04T05:55:14.638Z,0.56
2018-02-04T05:56:18.285Z,0.52
2018-02-04T05:56:43.785Z,0.59
2018-02-04T05:57:09.301Z,0.59
2018-02-04T05:57:34.776Z,0.58
2018-02-04T05:58:00.250Z,0.52
2018-02-04T05:58:25.775Z,0.52
2018-02-04T05:58:51.254Z,0.65
2018-02-04T05:59:16.742Z,0.55
2018-02-04T05:59:42.248Z,0.55
2018-02-04T06:00:07.758Z,0.58
2018-02-04T06:00:33.255Z,0.56
2018-02-04T06:00:58.762Z,0.6
2018-02-04T06:01:24.272Z,0.58
2018-02-04T06:01:49.811Z,0.49
2018-02-04T06:02:15.345Z,0.59
2018-02-04T06:02:40.826Z,0.56
2018-02-04T06:03:06.296Z,0.55
2018-02-04T06:03:31.855Z,0.52
2018-02-04T06:03:57.417Z,0.55
2018-02-04T06:04:22.924Z,0.56
2018-02-04T06:04:48.399Z,0.56
2018-02-04T06:05:46.900Z,0.56
2018-02-04T06:06:12.471Z,0.56
2018-02-04T06:06:37.940Z,0.52
2018-02-04T06:07:03.418Z,0.55
2018-02-04T06:08:06.999Z,0.55
2018-02-04T06:08:32.502Z,0.56
2018-02-04T06:08:57.981Z,0.58
2018-02-04T06:09:23.465Z,0.56
2018-02-04T06:09:48.912Z,0.59
2018-02-04T06:10:14.398Z,0.55
2018-02-04T06:10:39.924Z,0.56
2018-02-04T06:11:05.403Z,0.62
2018-02-04T06:11:30.903Z,0.56
2018-02-04T06:12:29.409Z,0.58
2018-02-04T06:12:54.902Z,0.56
2018-02-04T06:13:20.405Z,0.55
2018-02-04T06:13:45.931Z,0.62
2018-02-04T06:14:11.446Z,0.59
2018-02-04T06:14:36.952Z,0.55
2018-02-04T06:15:02.452Z,0.5
2018-02-04T06:15:27.942Z,0.56
2018-02-04T06:15:53.403Z,0.52
2018-02-04T06:16:18.898Z,0.59
2018-02-04T06:16:44.395Z,0.46
2018-02-04T06:17:09.884Z,0.49
2018-02-04T06:17:35.346Z,0.47
2018-02-04T06:18:00.863Z,0.5
2018-02-04T06:18:26.340Z,0.55
2018-02-04T06:18:51.828Z,0.47
2018-02-04T06:19:17.298Z,0.41
2018-02-04T06:19:42.755Z,0.47
2018-02-04T06:20:08.250Z,0.43
2018-02-04T06:20:33.730Z,0.44
2018-02-04T06:20:59.247Z,0.43
2018-02-04T06:21:24.742Z,0.34
2018-02-04T06:21:50.262Z,0.39
2018-02-04T06:22:15.751Z,0.36
2018-02-04T06:22:41.170Z,0.36
2018-02-04T06:23:06.679Z,0.41
2018-02-04T06:23:32.164Z,0.31
2018-02-04T06:24:35.903Z,0.28
2018-02-04T06:25:01.338Z,0.39
2018-02-04T06:25:26.829Z,0.36
2018-02-04T06:25:52.360Z,0.21
2018-02-04T06:26:17.761Z,0.25
2018-02-04T06:27:21.363Z,0.16
2018-02-04T06:27:46.843Z,0.22
2018-02-04T06:28:12.299Z,0.18
2018-02-04T06:28:37.734Z,0.16
2018-02-04T06:29:03.219Z,0.18
2018-02-04T06:29:28.683Z,0.16
2018-02-04T06:30:17.002Z,0.07
2018-02-04T06:30:42.473Z,0.16
2018-02-04T06:31:07.955Z,0.15
2018-02-04T06:31:33.392Z,0.15
2018-02-04T06:31:58.882Z,0.04
2018-02-04T06:32:24.361Z,0.11
2018-02-04T06:32:49.831Z,0.15
2018-02-04T06:33:15.338Z,0.11
2018-02-04T06:33:40.841Z,0.12
2018-02-04T06:34:06.337Z,0.08
2018-02-04T06:34:31.777Z,0.11
2018-02-04T06:34:57.258Z,0.16
2018-02-04T06:35:22.835Z,0.08
2018-02-04T06:35:48.263Z,0.1
2018-02-04T06:36:13.751Z,0.15
2018-02-04T06:36:39.216Z,0.12
2018-02-04T06:37:04.743Z,0.12
2018-02-04T06:37:30.231Z,0.07
2018-02-04T06:37:55.760Z,0.05
2018-02-04T06:38:21.223Z,0.1
2018-02-04T06:38:46.685Z,0.15
2018-02-04T06:39:12.232Z,0.12
2018-02-04T06:39:37.684Z,0.19
2018-02-04T06:40:03.188Z,0.08
2018-02-04T06:40:28.655Z,0.18
2018-02-04T06:40:54.147Z,0.23
2018-02-04T06:41:19.619Z,0.12
2018-02-04T06:41:45.114Z,0.16
2018-02-04T06:42:10.588Z,0.18
2018-02-04T06:42:36.098Z,0.19
2018-02-04T06:43:01.601Z,0.16
2018-02-04T06:43:27.083Z,0.23
2018-02-04T06:43:52.589Z,0.16
2018-02-04T06:44:18.078Z,0.18
2018-02-04T06:44:43.545Z,0.25
2018-02-04T06:45:09.034Z,0.23
2018-02-04T06:45:34.502Z,0.19
2018-02-04T06:45:59.971Z,0.23
2018-02-04T06:46:25.499Z,0.23
2018-02-04T06:46:50.982Z,0.23
2018-02-04T06:47:16.441Z,0.23
2018-02-04T06:48:04.748Z,0.21
2018-02-04T06:48:30.219Z,0.18
2018-02-04T06:48:55.704Z,0.18
2018-02-04T06:49:21.237Z,0.19
2018-02-04T06:49:46.730Z,0.22
2018-02-04T06:50:12.377Z,0.18
2018-02-04T06:50:37.806Z,0.19
2018-02-04T06:51:03.323Z,0.19
2018-02-04T06:51:28.800Z,0.21
2018-02-04T06:51:54.284Z,0.21
2018-02-04T06:52:19.797Z,0.31
2018-02-04T06:53:23.400Z,0.32
2018-02-04T06:53:48.889Z,0.29
2018-02-04T06:54:14.383Z,0.29
2018-02-04T06:54:39.883Z,0.26
2018-02-04T06:55:05.351Z,0.26
2018-02-04T06:56:03.844Z,0.39
2018-02-04T06:56:29.346Z,0.32
2018-02-04T06:56:54.831Z,0.32
2018-02-04T06:57:20.277Z,0.39
2018-02-04T06:57:45.899Z,0.36
2018-02-04T06:58:11.390Z,0.37
2018-02-04T06:58:36.882Z,0.34
2018-02-04T06:59:02.381Z,0.37
2018-02-04T06:59:27.892Z,0.46
2018-02-04T06:59:53.407Z,0.37
2018-02-04T07:00:18.888Z,0.39
2018-02-04T07:00:44.418Z,0.37
2018-02-04T07:01:09.840Z,0.44
2018-02-04T07:01:35.331Z,0.46
2018-02-04T07:02:00.866Z,0.46
2018-02-04T07:02:26.431Z,0.47
2018-02-04T07:02:51.918Z,0.41
2018-02-04T07:03:17.426Z,0.41
2018-02-04T07:03:42.912Z,0.49
2018-02-04T07:04:08.442Z,0.43
2018-02-04T07:04:33.907Z,0.44
2018-02-04T07:04:59.424Z,0.5
2018-02-04T07:05:24.938Z,0.56
2018-02-04T07:05:50.373Z,0.47
2018-02-04T07:06:15.896Z,0.44
2018-02-04T07:06:41.447Z,0.5
2018-02-04T07:07:06.930Z,0.47
2018-02-04T07:07:32.392Z,0.49
2018-02-04T07:07:57.874Z,0.52
2018-02-04T07:08:23.361Z,0.52
2018-02-04T07:08:48.816Z,0.55
2018-02-04T07:09:14.280Z,0.52
2018-02-04T07:09:39.769Z,0.52
2018-02-04T07:10:05.270Z,0.55
2018-02-04T07:10:30.827Z,0.52
2018-02-04T07:10:56.316Z,0.55
2018-02-04T07:11:21.818Z,0.55
2018-02-04T07:11:47.274Z,0.59
2018-02-04T07:12:12.746Z,0.56
2018-02-04T07:12:38.213Z,0.55
2018-02-04T07:13:03.713Z,0.59
2018-02-04T07:14:12.743Z,0.59
2018-02-04T07:14:38.278Z,0.52
2018-02-04T07:15:03.791Z,0.55
2018-02-04T07:15:29.282Z,0.5
2018-02-04T07:15:54.758Z,0.55
2018-02-04T07:16:20.307Z,0.55
2018-02-04T07:16:45.807Z,0.58
2018-02-04T07:17:11.289Z,0.52
2018-02-04T07:17:36.809Z,0.58
2018-02-04T07:18:02.315Z,0.5
2018-02-04T07:18:27.768Z,0.56
2018-02-04T07:18:53.275Z,0.56
2018-02-04T07:19:18.800Z,0.59
2018-02-04T07:19:44.276Z,0.63
2018-02-04T07:20:09.773Z,0.56
2018-02-04T07:20:35.291Z,0.59
2018-02-04T07:21:00.725Z,0.65
2018-02-04T07:21:26.244Z,0.63
2018-02-04T07:21:51.765Z,0.62
2018-02-04T07:22:17.293Z,0.65
2018-02-04T07:22:42.756Z,0.66
2018-02-04T07:23:08.202Z,0.6
2018-02-04T07:23:33.719Z,0.62
2018-02-04T07:23:59.169Z,0.66
2018-02-04T07:24:24.683Z,0.7
2018-02-04T07:24:50.211Z,0.63
2018-02-04T07:25:15.738Z,0.65
2018-02-04T07:25:41.237Z,0.65
2018-02-04T07:26:06.776Z,0.63
2018-02-04T07:26:32.256Z,0.62
2018-02-04T07:26:57.737Z,0.63
2018-02-04T07:27:23.189Z,0.68
2018-02-04T07:27:48.774Z,0.74
2018-02-04T07:28:14.308Z,0.69
2018-02-04T07:28:39.795Z,0.65
2018-02-04T07:29:05.276Z,0.65
2018-02-04T07:29:30.743Z,0.66
2018-02-04T07:29:56.254Z,0.68
2018-02-04T07:30:21.722Z,0.68
2018-02-04T07:30:47.168Z,0.7
2018-02-04T07:31:12.633Z,0.74
2018-02-04T07:31:38.137Z,0.73
2018-02-04T07:32:03.585Z,0.68
2018-02-04T07:32:29.061Z,0.68
2018-02-04T07:32:54.589Z,0.73
2018-02-04T07:33:20.046Z,0.78
2018-02-04T07:33:45.524Z,0.76
2018-02-04T07:34:44.097Z,0.69
2018-02-04T07:35:09.593Z,0.66
2018-02-04T07:35:35.059Z,0.76
2018-02-04T07:36:00.490Z,0.78
2018-02-04T07:36:59.036Z,0.68
2018-02-04T07:37:24.514Z,0.76
2018-02-04T07:37:49.976Z,0.8
2018-02-04T07:38:15.500Z,0.8
2018-02-04T07:38:41.047Z,0.8
2018-02-04T07:39:06.443Z,0.74
2018-02-04T07:39:31.953Z,0.77
2018-02-04T07:39:57.558Z,0.8
2018-02-04T07:40:50.964Z,0.81
2018-02-04T07:41:16.456Z,0.8
2018-02-04T07:41:41.957Z,0.86
2018-02-04T07:42:07.460Z,0.84
2018-02-04T07:42:32.933Z,0.86
2018-02-04T07:42:58.490Z,0.84
2018-02-04T07:43:23.989Z,0.81
2018-02-04T07:43:49.424Z,0.83
2018-02-04T07:44:14.960Z,0.86
2018-02-04T07:44:40.395Z,0.81
2018-02-04T07:45:05.873Z,0.83
2018-02-04T07:45:31.322Z,0.81
2018-02-04T07:45:56.853Z,0.77
2018-02-04T07:46:22.290Z,0.83
2018-02-04T07:46:47.764Z,0.74
2018-02-04T07:47:56.523Z,0.81
2018-02-04T07:48:22.169Z,0.77
2018-02-04T07:48:47.655Z,0.77
2018-02-04T07:49:13.138Z,0.77
2018-02-04T07:49:38.619Z,0.78
2018-02-04T07:50:04.083Z,0.77
2018-02-04T07:50:29.576Z,0.81
2018-02-04T07:50:55.049Z,0.7
2018-02-04T07:51:20.541Z,0.69
2018-02-04T07:52:29.231Z,0.8
2018-02-04T07:52:54.746Z,0.76
2018-02-04T07:53:20.226Z,0.77
2018-02-04T07:53:45.679Z,0.69
2018-02-04T07:54:11.153Z,0.7
2018-02-04T07:54:36.618Z,0.7
2018-02-04T07:55:02.297Z,0.73
2018-02-04T07:55:27.748Z,0.7
2018-02-04T07:55:53.371Z,0.7
2018-02-04T07:56:18.966Z,0.7
2018-02-04T07:56:44.451Z,0.65
2018-02-04T07:57:09.897Z,0.65
2018-02-04T07:57:35.363Z,0.76
2018-02-04T07:58:00.879Z,0.84
2018-02-04T07:58:26.535Z,0.65
2018-02-04T07:58:51.994Z,0.7
2018-02-04T07:59:17.461Z,0.74
2018-02-04T07:59:42.978Z,0.66
2018-02-04T08:00:08.636Z,0.68
2018-02-04T08:00:34.040Z,0.68
2018-02-04T08:00:59.508Z,0.74
2018-02-04T08:01:25.005Z,0.78
2018-02-04T08:01:50.760Z,0.83
2018-02-04T08:02:16.271Z,0.73
2018-02-04T08:02:41.842Z,0.78
2018-02-04T08:03:07.310Z,0.69
2018-02-04T08:03:32.819Z,0.74
2018-02-04T08:03:58.299Z,0.8
2018-02-04T08:04:23.710Z,0.68
2018-02-04T08:04:49.222Z,0.76
2018-02-04T08:05:14.649Z,0.78
2018-02-04T08:05:40.149Z,0.83
2018-02-04T08:06:05.664Z,0.78
2018-02-04T08:06:31.157Z,0.76
2018-02-04T08:06:56.594Z,0.77
2018-02-04T08:07:22.061Z,0.68
2018-02-04T08:07:47.540Z,0.8
2018-02-04T08:08:13.036Z,0.74
2018-02-04T08:08:38.511Z,0.68
2018-02-04T08:09:04.047Z,0.7
2018-02-04T08:09:29.520Z,0.63
2018-02-04T08:09:55.028Z,0.73
2018-02-04T08:10:20.559Z,0.68
2018-02-04T08:10:45.997Z,0.7
2018-02-04T08:11:11.534Z,0.69
2018-02-04T08:11:37.520Z,0.68
2018-02-04T08:12:03.167Z,0.7
2018-02-04T08:12:30.609Z,0.68
2018-02-04T08:12:58.671Z,0.77
2018-02-04T08:13:25.161Z,0.7
2018-02-04T08:13:50.755Z,0.73
2018-02-04T08:14:16.331Z,0.7
2018-02-04T08:14:41.817Z,0.7
2018-02-04T08:15:07.291Z,0.73
2018-02-04T08:15:33.325Z,0.65
2018-02-04T08:15:59.202Z,0.7
2018-02-04T08:16:24.785Z,0.73
2018-02-04T08:16:50.264Z,0.74
2018-02-04T08:17:15.769Z,0.68
2018-02-04T08:17:41.335Z,0.66
2018-02-04T08:18:06.754Z,0.69
2018-02-04T08:19:15.456Z,0.68
2018-02-04T08:19:41.075Z,0.76
2018-02-04T08:20:06.658Z,0.69
2018-02-04T08:20:32.156Z,0.69
2018-02-04T08:20:57.658Z,0.65
2018-02-04T08:21:23.241Z,0.65
2018-02-04T08:21:48.819Z,0.74
2018-02-04T08:22:14.275Z,0.74
2018-02-04T08:22:39.739Z,0.76
2018-02-04T08:23:05.257Z,0.77
2018-02-04T08:23:30.732Z,0.73
2018-02-04T08:23:56.276Z,0.84
2018-02-04T08:24:21.784Z,0.68
2018-02-04T08:24:47.323Z,0.83
2018-02-04T08:25:12.813Z,0.69
2018-02-04T08:25:38.286Z,0.83
2018-02-04T08:26:03.755Z,0.74
2018-02-04T08:26:29.230Z,0.76
2018-02-04T08:26:54.757Z,0.78
2018-02-04T08:27:20.182Z,0.66
2018-02-04T08:27:45.712Z,0.74
2018-02-04T08:28:11.159Z,0.74
2018-02-04T08:28:36.663Z,0.73
2018-02-04T08:29:02.076Z,0.69
2018-02-04T08:29:27.527Z,0.69
2018-02-04T08:29:52.990Z,0.69
2018-02-04T08:30:18.480Z,0.66
2018-02-04T08:30:43.952Z,0.69
2018-02-04T08:31:09.455Z,0.74
2018-02-04T08:31:34.949Z,0.69
2018-02-04T08:32:00.497Z,0.66
2018-02-04T08:32:26.014Z,0.66
2018-02-04T08:32:51.474Z,0.68
2018-02-04T08:33:16.960Z,0.76
2018-02-04T08:33:42.414Z,0.6
2018-02-04T08:34:35.921Z,0.65
2018-02-04T08:35:01.388Z,0.62
2018-02-04T08:35:26.891Z,0.66
2018-02-04T08:35:52.340Z,0.62
2018-02-04T08:36:17.813Z,0.68
2018-02-04T08:36:43.299Z,0.59
2018-02-04T08:37:08.780Z,0.65
2018-02-04T08:37:34.253Z,0.56
2018-02-04T08:37:59.731Z,0.62
2018-02-04T08:38:25.224Z,0.66
2018-02-04T08:38:50.702Z,0.68
2018-02-04T08:39:16.160Z,0.68
2018-02-04T08:39:41.625Z,0.68
2018-02-04T08:40:07.112Z,0.7
2018-02-04T08:40:32.631Z,0.66
2018-02-04T08:40:58.100Z,0.63
2018-02-04T08:41:23.612Z,0.68
2018-02-04T08:41:49.068Z,0.65
2018-02-04T08:42:15.142Z,0.66
2018-02-04T08:42:40.630Z,0.63
2018-02-04T08:43:06.087Z,0.63
2018-02-04T08:43:31.568Z,0.63
2018-02-04T08:43:57.062Z,0.68
2018-02-04T08:44:22.605Z,0.74
2018-02-04T08:44:48.111Z,0.66
2018-02-04T08:45:13.595Z,0.63
2018-02-04T08:45:39.102Z,0.65
2018-02-04T08:46:04.544Z,0.63
2018-02-04T08:46:30.021Z,0.6
2018-02-04T08:46:55.515Z,0.66
2018-02-04T08:47:44.039Z,0.5
2018-02-04T08:48:09.533Z,0.6
2018-02-04T08:48:35.109Z,0.63
2018-02-04T08:49:00.583Z,0.69
2018-02-04T08:50:10.563Z,0.76
2018-02-04T08:50:36.186Z,0.68
2018-02-04T08:51:01.664Z,0.68
2018-02-04T08:51:27.137Z,0.7
2018-02-04T08:51:52.659Z,0.74
2018-02-04T08:52:18.976Z,0.66
2018-02-04T08:53:07.319Z,0.68
2018-02-04T08:53:33.180Z,0.68
2018-02-04T08:53:59.147Z,0.68
2018-02-04T08:54:24.538Z,0.7
2018-02-04T08:54:50.010Z,0.69
2018-02-04T08:55:15.481Z,0.73
2018-02-04T08:55:41.058Z,0.73
2018-02-04T08:56:06.461Z,0.63
2018-02-04T08:56:31.889Z,0.69
2018-02-04T08:56:57.520Z,0.62
2018-02-04T08:57:23.028Z,0.69
2018-02-04T08:57:48.578Z,0.68
2018-02-04T08:58:14.064Z,0.63
2018-02-04T08:58:39.512Z,0.65
2018-02-04T08:59:05.016Z,0.69
2018-02-04T08:59:30.489Z,0.74
2018-02-04T08:59:55.947Z,0.7
2018-02-04T09:00:21.516Z,0.73
2018-02-04T09:00:46.949Z,0.7
2018-02-04T09:01:12.479Z,0.69
2018-02-04T09:01:38.046Z,0.73
2018-02-04T09:02:03.468Z,0.65
2018-02-04T09:02:28.991Z,0.76
2018-02-04T09:02:54.456Z,0.8
2018-02-04T09:03:19.871Z,0.73
2018-02-04T09:03:45.401Z,0.78
2018-02-04T09:04:10.910Z,0.81
2018-02-04T09:04:36.418Z,0.83
2018-02-04T09:05:01.871Z,0.84
2018-02-04T09:05:27.411Z,0.88
2018-02-04T09:05:52.870Z,0.86
2018-02-04T09:06:18.355Z,0.86
2018-02-04T09:06:43.780Z,0.83
2018-02-04T09:07:09.259Z,0.83
2018-02-04T09:07:34.743Z,0.83
2018-02-04T09:08:00.229Z,0.8
2018-02-04T09:08:25.712Z,0.83
2018-02-04T09:09:14.035Z,0.84
2018-02-04T09:09:39.553Z,0.86
2018-02-04T09:10:05.030Z,0.84
2018-02-04T09:11:03.598Z,0.92
2018-02-04T09:11:29.543Z,0.81
2018-02-04T09:11:55.092Z,0.99
2018-02-04T09:12:20.515Z,0.87
2018-02-04T09:12:46.083Z,0.95
2018-02-04T09:13:11.618Z,0.81
2018-02-04T09:13:37.535Z,0.94
2018-02-04T09:14:03.117Z,0.96
2018-02-04T09:14:28.551Z,0.96
2018-02-04T09:14:54.124Z,0.87
2018-02-04T09:15:19.665Z,0.95
2018-02-04T09:15:45.478Z,0.94
2018-02-04T09:16:11.167Z,1.01
2018-02-04T09:16:36.682Z,0.94
2018-02-04T09:17:02.126Z,0.87
2018-02-04T09:17:28.390Z,0.88
2018-02-04T09:17:54.049Z,0.88
2018-02-04T09:18:19.623Z,0.91
2018-02-04T09:18:45.090Z,0.92
2018-02-04T09:19:10.856Z,0.86
2018-02-04T09:19:36.760Z,0.98
2018-02-04T09:20:02.176Z,0.95
2018-02-04T09:20:27.759Z,0.95
2018-02-04T09:20:53.283Z,0.98
2018-02-04T09:21:18.781Z,0.96
2018-02-04T09:21:44.232Z,0.94
2018-02-04T09:22:09.684Z,0.99
2018-02-04T09:22:35.166Z,0.96
2018-02-04T09:23:00.997Z,1.01
2018-02-04T09:23:26.476Z,0.94
2018-02-04T09:23:51.956Z,1.01
2018-02-04T09:24:17.514Z,1.01
2018-02-04T09:24:42.936Z,1.01
2018-02-04T09:25:08.444Z,1.01
2018-02-04T09:25:34.019Z,1.02
2018-02-04T09:25:59.496Z,1.04
2018-02-04T09:26:25.068Z,0.98
2018-02-04T09:26:50.565Z,1.02
2018-02-04T09:27:16.127Z,1.06
2018-02-04T09:27:41.543Z,1.08
2018-02-04T09:28:07.038Z,1.08
2018-02-04T09:28:32.454Z,1.14
2018-02-04T09:28:57.989Z,1.06
2018-02-04T09:29:23.409Z,1.04
2018-02-04T09:29:48.987Z,1.08
2018-02-04T09:30:14.424Z,1.05
2018-02-04T09:30:39.899Z,1.05
2018-02-04T09:31:05.399Z,1.04
2018-02-04T09:31:30.879Z,1.08
2018-02-04T09:31:56.506Z,1.08
2018-02-04T09:32:22.195Z,1.13
2018-02-04T09:32:47.802Z,1.13
2018-02-04T09:33:13.369Z,1.1
2018-02-04T09:33:38.773Z,1.06
2018-02-04T09:34:04.293Z,1.04
2018-02-04T09:34:29.907Z,1.05
2018-02-04T09:34:55.802Z,1.04
2018-02-04T09:35:21.270Z,1.2
2018-02-04T09:35:46.827Z,1.1
2018-02-04T09:36:12.306Z,1.12
2018-02-04T09:36:37.756Z,1.23
2018-02-04T09:37:03.220Z,1.22
2018-02-04T09:37:28.746Z,1.19
2018-02-04T09:37:54.167Z,1.22
2018-02-04T09:38:19.641Z,1.22
2018-02-04T09:38:45.113Z,1.17
2018-02-04T09:39:10.613Z,1.22
2018-02-04T09:39:36.119Z,1.16
2018-02-04T09:40:01.556Z,1.19
2018-02-04T09:40:27.060Z,1.28
2018-02-04T09:40:52.547Z,1.24
2018-02-04T09:41:17.984Z,1.26
2018-02-04T09:41:43.486Z,1.24
2018-02-04T09:42:09.007Z,1.28
2018-02-04T09:42:34.474Z,1.24
2018-02-04T09:42:59.956Z,1.3
2018-02-04T09:43:25.406Z,1.38
2018-02-04T09:43:50.954Z,1.19
2018-02-04T09:44:16.462Z,1.31
2018-02-04T09:45:09.907Z,1.3
2018-02-04T09:45:35.390Z,1.28
2018-02-04T09:46:00.863Z,1.24
2018-02-04T09:46:26.335Z,1.23
2018-02-04T09:46:51.848Z,1.16
2018-02-04T09:47:17.287Z,1.13
2018-02-04T09:47:42.774Z,1.17
2018-02-04T09:48:08.214Z,1.04
2018-02-04T09:48:33.676Z,1.02
2018-02-04T09:48:59.165Z,1.04
2018-02-04T09:49:24.658Z,1.04
2018-02-04T09:49:50.103Z,1.12
2018-02-04T09:50:15.615Z,1.16
2018-02-04T09:50:41.087Z,1.19
2018-02-04T09:51:06.585Z,1.17
2018-02-04T09:51:32.058Z,1.23
2018-02-04T09:51:57.557Z,1.24
2018-02-04T09:52:23.084Z,1.26
2018-02-04T09:52:48.495Z,1.24
2018-02-04T09:53:47.059Z,1.31
2018-02-04T09:54:12.490Z,1.28
2018-02-04T09:54:37.996Z,1.32
2018-02-04T09:55:03.459Z,1.37
2018-02-04T09:55:28.915Z,1.37
2018-02-04T09:55:54.369Z,1.31
2018-02-04T09:56:19.818Z,1.37
2018-02-04T09:56:45.296Z,1.42
2018-02-04T09:57:10.788Z,1.41
2018-02-04T09:57:36.302Z,1.44
2018-02-04T09:58:01.787Z,1.37
2018-02-04T09:58:27.223Z,1.38
2018-02-04T09:58:52.728Z,1.5
2018-02-04T09:59:18.191Z,1.4
2018-02-04T09:59:43.686Z,1.38
2018-02-04T10:00:09.198Z,1.34
2018-02-04T10:00:34.665Z,1.42
2018-02-04T10:01:00.192Z,1.34
2018-02-04T10:01:25.679Z,1.42
2018-02-04T10:01:51.314Z,1.35
2018-02-04T10:02:16.785Z,1.31
2018-02-04T10:02:42.308Z,1.41
2018-02-04T10:03:07.821Z,1.32
2018-02-04T10:03:33.280Z,1.31
2018-02-04T10:03:58.761Z,1.3
2018-02-04T10:04:24.277Z,1.3
2018-02-04T10:04:49.742Z,1.3
2018-02-04T10:05:15.310Z,1.3
2018-02-04T10:05:40.806Z,1.26
2018-02-04T10:06:06.243Z,1.28
2018-02-04T10:06:31.782Z,1.28
2018-02-04T10:06:57.434Z,1.32
2018-02-04T10:07:22.899Z,1.31
2018-02-04T10:07:48.362Z,1.32
2018-02-04T10:08:13.825Z,1.38
2018-02-04T10:08:39.303Z,1.38
2018-02-04T10:09:04.758Z,1.37
2018-02-04T10:09:30.276Z,1.35
2018-02-04T10:09:55.742Z,1.35
2018-02-04T10:10:21.337Z,1.4
2018-02-04T10:10:47.164Z,1.45
2018-02-04T10:11:12.639Z,1.42
2018-02-04T10:11:39.432Z,1.48
2018-02-04T10:12:04.855Z,1.44
2018-02-04T10:12:30.367Z,1.49
2018-02-04T10:12:55.965Z,1.44
2018-02-04T10:13:21.448Z,1.52
2018-02-04T10:13:47.003Z,1.45
2018-02-04T10:14:12.663Z,1.45
2018-02-04T10:14:38.516Z,1.44
2018-02-04T10:15:04.220Z,1.48
2018-02-04T10:15:30.506Z,1.35
2018-02-04T10:15:56.177Z,1.34
2018-02-04T10:16:21.794Z,1.34
2018-02-04T10:16:47.441Z,1.35
2018-02-04T10:17:46.130Z,1.31
2018-02-04T10:18:11.627Z,1.35
2018-02-04T10:18:37.110Z,1.34
2018-02-04T10:19:02.578Z,1.26
2018-02-04T10:19:28.093Z,1.24
2018-02-04T10:19:53.522Z,1.19
2018-02-04T10:20:41.949Z,1.17
2018-02-04T10:21:07.435Z,1.12
2018-02-04T10:21:32.911Z,1.02
2018-02-04T10:21:58.578Z,1.01
2018-02-04T10:22:24.118Z,1.08
2018-02-04T10:22:49.543Z,1.1
2018-02-04T10:23:14.988Z,1.04
2018-02-04T10:23:41.029Z,1.1
2018-02-04T10:24:07.083Z,1.05
2018-02-04T10:24:32.561Z,1.04
2018-02-04T10:24:58.652Z,1.1
2018-02-04T10:25:24.532Z,1.02
2018-02-04T10:25:50.169Z,1.19
2018-02-04T10:26:15.953Z,1.13
2018-02-04T10:26:41.756Z,1.2
2018-02-04T10:27:07.396Z,1.31
2018-02-04T10:27:33.240Z,1.16
2018-02-04T10:27:58.961Z,1.3
2018-02-04T10:28:24.625Z,1.32
2018-02-04T10:28:50.077Z,1.34
2018-02-04T10:29:15.656Z,1.4
2018-02-04T10:29:41.225Z,1.41
2018-02-04T10:30:06.687Z,1.49
2018-02-04T10:30:32.356Z,1.52
2018-02-04T10:30:57.881Z,1.55
2018-02-04T10:31:23.394Z,1.58
2018-02-04T10:31:48.887Z,1.7
2018-02-04T10:32:14.338Z,1.66
2018-02-04T10:32:39.829Z,1.67
2018-02-04T10:33:33.289Z,1.74
2018-02-04T10:33:58.913Z,1.62
2018-02-04T10:34:24.369Z,1.76
2018-02-04T10:34:49.876Z,1.7
2018-02-04T10:35:15.355Z,1.7
2018-02-04T10:35:40.885Z,1.74
2018-02-04T10:36:06.392Z,1.76
2018-02-04T10:36:31.861Z,1.74
2018-02-04T10:36:57.310Z,1.81
2018-02-04T10:37:23.124Z,1.81
2018-02-04T10:37:48.569Z,1.81
2018-02-04T10:38:14.063Z,1.8
2018-02-04T10:38:39.634Z,1.76
2018-02-04T10:39:05.129Z,1.78
2018-02-04T10:39:30.606Z,1.77
2018-02-04T10:39:56.008Z,1.74
2018-02-04T10:40:21.500Z,1.71
2018-02-04T10:40:47.032Z,1.74
2018-02-04T10:41:12.859Z,1.68
2018-02-04T10:41:38.719Z,1.7
2018-02-04T10:42:04.202Z,1.66
2018-02-04T10:42:29.662Z,1.71
2018-02-04T10:42:55.164Z,1.67
2018-02-04T10:43:20.657Z,1.74
2018-02-04T10:43:46.257Z,1.63
2018-02-04T10:44:11.748Z,1.73
2018-02-04T10:44:37.244Z,1.76
2018-02-04T10:45:02.716Z,1.76
2018-02-04T10:45:28.255Z,1.68
2018-02-04T10:45:53.882Z,1.71
2018-02-04T10:46:19.391Z,1.71
2018-02-04T10:46:44.845Z,1.76
2018-02-04T10:47:10.323Z,1.71
2018-02-04T10:47:35.767Z,1.76
2018-02-04T10:48:01.279Z,1.8
2018-02-04T10:48:26.746Z,1.73
2018-02-04T10:48:52.234Z,1.8
2018-02-04T10:49:17.671Z,1.76
2018-02-04T10:49:43.205Z,1.71
2018-02-04T10:50:08.710Z,1.74
2018-02-04T10:50:34.243Z,1.71
2018-02-04T10:50:59.643Z,1.73
2018-02-04T10:51:25.156Z,1.71
2018-02-04T10:51:50.660Z,1.71
2018-02-04T10:52:16.093Z,1.7
2018-02-04T10:52:41.568Z,1.73
2018-02-04T10:53:07.130Z,1.71
2018-02-04T10:53:32.549Z,1.71
2018-02-04T10:53:58.050Z,1.74
2018-02-04T10:54:23.536Z,1.76
2018-02-04T10:54:49.076Z,1.78
2018-02-04T10:55:14.493Z,1.8
2018-02-04T10:55:40.082Z,1.73
2018-02-04T10:56:05.601Z,1.84
2018-02-04T10:56:30.980Z,1.81
2018-02-04T10:56:56.443Z,1.76
2018-02-04T10:57:21.865Z,1.74
2018-02-04T10:57:47.349Z,1.84
2018-02-04T10:58:12.836Z,1.8
2018-02-04T10:58:38.337Z,1.8
2018-02-04T10:59:03.780Z,1.91
2018-02-04T10:59:29.217Z,1.81